Time;durP1;ratioP1;P1;durP2;ratioP2;P2;SDS_P1;SDS_P2;PMS_P1;PMS_P2;Temp;Humidity;BMP_temperature;BMP_pressure;BME280_temperature;BME280_humidity;BME280_pressure;Samples;Min_cycle;Max_cycle;Signal;HPM_P1;HPM_P2
2023/06/12 00:01:17;;;;;;;2.28;2.17;;;18.30;88.60;;;;;;5091618;28;20265;-76
2023/06/12 00:03:43;;;;;;;2.33;2.22;;;18.30;88.50;;;;;;5091671;28;20170;-76
2023/06/12 00:06:09;;;;;;;3.42;2.42;;;18.40;88.50;;;;;;5090470;28;20561;-76
2023/06/12 00:08:41;;;;;;;2.03;1.92;;;18.40;88.50;;;;;;5091859;28;20237;-76
2023/06/12 00:11:09;;;;;;;1.75;1.75;;;18.40;88.40;;;;;;5091180;28;20732;-76
2023/06/12 00:13:36;;;;;;;2.35;2.25;;;18.30;88.20;;;;;;5091898;28;20170;-76
2023/06/12 00:16:02;;;;;;;2.83;2.65;;;18.40;88.60;;;;;;5069421;28;20302;-76
2023/06/12 00:18:28;;;;;;;2.92;2.83;;;18.30;88.90;;;;;;5076345;28;20186;-76
2023/06/12 00:20:53;;;;;;;4.38;2.75;;;18.30;89.10;;;;;;5090841;28;20180;-74
2023/06/12 00:23:19;;;;;;;2.35;2.25;;;18.30;89.40;;;;;;5098277;28;20643;-75
2023/06/12 00:25:45;;;;;;;5.63;2.63;;;18.30;90.10;;;;;;5091782;28;20226;-75
2023/06/12 00:28:10;;;;;;;2.65;2.35;;;18.20;90.00;;;;;;5092870;28;20562;-76
2023/06/12 00:30:36;;;;;;;3.13;2.97;;;18.20;91.70;;;;;;5091795;28;20248;-76
2023/06/12 00:33:02;;;;;;;2.88;2.38;;;18.00;92.80;;;;;;5089544;28;20190;-76
2023/06/12 00:35:27;;;;;;;2.90;2.80;;;17.90;93.90;;;;;;5093319;28;20206;-76
2023/06/12 00:37:54;;;;;;;3.78;3.08;;;17.90;92.80;;;;;;5088054;28;20178;-75
2023/06/12 00:40:20;;;;;;;2.78;2.67;;;18.00;91.70;;;;;;5096924;28;20174;-75
2023/06/12 00:42:49;;;;;;;2.30;2.20;;;17.90;92.10;;;;;;5093814;28;20640;-76
2023/06/12 00:45:18;;;;;;;2.65;2.55;;;17.90;91.10;;;;;;5089564;28;20185;-76
2023/06/12 00:47:46;;;;;;;2.40;2.30;;;17.90;91.30;;;;;;5090455;28;20174;-76
2023/06/12 00:50:13;;;;;;;2.60;2.50;;;17.90;91.40;;;;;;5078382;28;20182;-77
2023/06/12 00:52:44;;;;;;;2.22;2.20;;;17.90;91.30;;;;;;5090832;28;20211;-76
2023/06/12 00:55:11;;;;;;;3.50;2.72;;;17.80;93.00;;;;;;5094632;28;20684;-75
2023/06/12 00:57:38;;;;;;;3.25;2.63;;;17.80;93.30;;;;;;5072884;28;20656;-76
2023/06/12 01:00:07;;;;;;;2.80;2.60;;;17.70;93.90;;;;;;5112956;27;20269;-76
2023/06/12 01:02:39;;;;;;;3.53;3.25;;;17.70;94.60;;;;;;5101194;28;20597;-76
2023/06/12 01:05:07;;;;;;;2.42;2.22;;;17.70;94.80;;;;;;5094554;28;20186;-75
2023/06/12 01:07:44;;;;;;;3.03;2.78;;;17.70;94.70;;;;;;5096722;28;20182;-76
2023/06/12 01:10:36;;;;;;;2.15;2.13;;;17.80;93.10;;;;;;5093425;28;20192;-76
2023/06/12 01:13:03;;;;;;;2.65;2.55;;;17.80;92.00;;;;;;5095437;28;20178;-76
2023/06/12 01:15:28;;;;;;;2.83;2.63;;;17.90;92.60;;;;;;5092302;28;20305;-76
2023/06/12 01:17:54;;;;;;;2.88;2.58;;;17.90;93.70;;;;;;5103114;28;20315;-76
2023/06/12 01:20:20;;;;;;;2.58;2.40;;;17.90;93.00;;;;;;5097693;28;20567;-75
2023/06/12 01:22:56;;;;;;;2.58;2.47;;;18.00;92.60;;;;;;5097214;28;21046;-75
2023/06/12 01:25:42;;;;;;;2.72;2.63;;;18.00;91.50;;;;;;5096411;28;20187;-76
2023/06/12 01:28:17;;;;;;;2.63;2.53;;;18.10;91.80;;;;;;5093492;28;20169;-76
2023/06/12 01:31:08;;;;;;;2.28;2.28;;;18.10;91.50;;;;;;5098353;28;20185;-75
2023/06/12 01:33:41;;;;;;;2.38;2.28;;;18.10;91.70;;;;;;5091154;28;20171;-75
2023/06/12 01:36:11;;;;;;;3.70;2.35;;;18.20;91.50;;;;;;5093926;28;20302;-75
2023/06/12 01:38:39;;;;;;;3.22;2.92;;;18.10;92.10;;;;;;5082760;28;20188;-75
2023/06/12 01:41:08;;;;;;;2.50;2.30;;;18.10;91.40;;;;;;5097880;28;20186;-76
2023/06/12 01:43:36;;;;;;;2.45;2.35;;;18.10;91.30;;;;;;5095524;28;20217;-76
2023/06/12 01:46:03;;;;;;;2.85;2.72;;;18.10;91.10;;;;;;5073358;28;20193;-76
2023/06/12 01:48:29;;;;;;;2.40;2.20;;;18.10;91.10;;;;;;5078973;28;20379;-76
2023/06/12 01:50:54;;;;;;;3.15;3.00;;;18.10;91.00;;;;;;5074862;28;20166;-76
2023/06/12 01:53:21;;;;;;;2.60;2.40;;;18.20;90.80;;;;;;5092358;28;20174;-76
2023/06/12 01:55:49;;;;;;;2.75;2.65;;;18.20;90.90;;;;;;5092795;28;20212;-77
2023/06/12 01:58:16;;;;;;;2.58;2.47;;;18.20;90.90;;;;;;5092159;28;20223;-76
2023/06/12 02:00:42;;;;;;;3.00;2.80;;;18.20;91.10;;;;;;5091811;28;20171;-76
2023/06/12 02:03:08;;;;;;;3.33;3.00;;;18.20;91.10;;;;;;5092990;28;20559;-76
2023/06/12 02:05:33;;;;;;;3.22;2.67;;;18.20;91.20;;;;;;5096578;28;20178;-76
2023/06/12 02:07:59;;;;;;;2.33;2.22;;;18.20;91.30;;;;;;5092675;28;20643;-76
2023/06/12 02:10:25;;;;;;;4.55;2.67;;;18.20;91.80;;;;;;5095721;28;20198;-77
2023/06/12 02:12:51;;;;;;;3.20;3.00;;;18.10;91.50;;;;;;5079941;28;20670;-76
2023/06/12 02:15:18;;;;;;;2.95;2.75;;;18.10;92.00;;;;;;5091694;28;20167;-75
2023/06/12 02:17:44;;;;;;;2.60;2.50;;;18.00;92.20;;;;;;5096428;28;20184;-75
2023/06/12 02:20:10;;;;;;;2.47;2.28;;;18.00;92.20;;;;;;5092482;28;20644;-75
2023/06/12 02:22:35;;;;;;;2.75;2.65;;;18.00;91.60;;;;;;5097326;28;20180;-75
2023/06/12 02:25:02;;;;;;;3.25;2.92;;;18.10;91.50;;;;;;5076406;28;20182;-75
2023/06/12 02:27:28;;;;;;;2.80;2.60;;;18.10;91.40;;;;;;5094510;28;20186;-74
2023/06/12 02:29:53;;;;;;;3.10;2.90;;;18.20;91.20;;;;;;5092936;28;20213;-77
2023/06/12 02:32:19;;;;;;;3.92;2.33;;;18.20;91.10;;;;;;5092954;28;20255;-76
2023/06/12 02:34:45;;;;;;;3.22;2.78;;;18.20;91.20;;;;;;5077157;28;20659;-77
2023/06/12 02:37:10;;;;;;;2.65;2.55;;;18.20;91.20;;;;;;5092568;28;20224;-76
2023/06/12 02:39:36;;;;;;;2.97;2.45;;;18.20;91.40;;;;;;5098411;28;20170;-76
2023/06/12 02:42:03;;;;;;;4.15;2.95;;;18.10;91.40;;;;;;5096435;28;20178;-75
2023/06/12 02:44:28;;;;;;;4.20;2.60;;;18.00;91.60;;;;;;5085685;28;20287;-76
2023/06/12 02:46:55;;;;;;;6.90;2.28;;;17.90;91.60;;;;;;5089427;28;20205;-76
2023/06/12 02:49:22;;;;;;;2.25;2.15;;;18.00;91.60;;;;;;5099653;28;20205;-75
2023/06/12 02:51:47;;;;;;;2.33;2.22;;;17.90;91.80;;;;;;5096179;28;20189;-75
2023/06/12 02:54:15;;;;;;;2.72;2.55;;;17.90;91.90;;;;;;5090283;28;20643;-75
2023/06/12 02:56:47;;;;;;;3.10;2.83;;;17.90;91.80;;;;;;5093394;28;20654;-76
2023/06/12 02:59:17;;;;;;;2.30;2.20;;;17.90;91.80;;;;;;5090999;28;20182;-75
2023/06/12 03:01:43;;;;;;;2.28;2.17;;;18.00;91.90;;;;;;5093757;28;20177;-76
2023/06/12 03:04:15;;;;;;;2.42;2.33;;;18.00;91.70;;;;;;5067539;28;20202;-76
2023/06/12 03:06:43;;;;;;;2.85;2.53;;;18.00;91.40;;;;;;5092496;28;20181;-74
2023/06/12 03:09:09;;;;;;;2.28;2.22;;;18.00;91.30;;;;;;5098304;28;20182;-74
2023/06/12 03:11:36;;;;;;;2.88;2.60;;;18.00;91.40;;;;;;5076583;28;20182;-74
2023/06/12 03:14:02;;;;;;;2.63;2.50;;;18.10;91.40;;;;;;5099142;28;20663;-73
2023/06/12 03:16:28;;;;;;;2.58;2.47;;;18.10;91.40;;;;;;5096583;28;20284;-74
2023/06/12 03:18:54;;;;;;;4.20;2.47;;;18.10;91.50;;;;;;5093804;28;20614;-74
2023/06/12 03:21:20;;;;;;;2.72;1.88;;;18.10;91.40;;;;;;5090301;28;20175;-74
2023/06/12 03:23:45;;;;;;;5.03;2.60;;;18.20;91.40;;;;;;5091656;28;20180;-74
2023/06/12 03:26:11;;;;;;;2.80;2.67;;;18.20;91.50;;;;;;5091263;28;20282;-75
2023/06/12 03:28:37;;;;;;;3.63;2.25;;;18.20;91.50;;;;;;5093966;28;20176;-74
2023/06/12 03:31:03;;;;;;;3.30;3.10;;;18.20;91.30;;;;;;5094481;28;20198;-74
2023/06/12 03:33:28;;;;;;;3.90;2.78;;;18.20;91.20;;;;;;5091718;28;20182;-74
2023/06/12 03:35:54;;;;;;;2.83;2.63;;;18.20;91.20;;;;;;5091420;28;20217;-75
2023/06/12 03:38:20;;;;;;;5.78;2.45;;;18.10;91.30;;;;;;5068777;28;20259;-74
2023/06/12 03:40:46;;;;;;;2.80;2.65;;;18.10;91.30;;;;;;5091695;28;20182;-75
2023/06/12 03:43:11;;;;;;;2.50;2.40;;;18.10;91.50;;;;;;5089520;28;20182;-75
2023/06/12 03:45:37;;;;;;;2.55;2.45;;;18.10;91.70;;;;;;5091419;28;20195;-75
2023/06/12 03:48:03;;;;;;;2.53;2.42;;;18.10;91.70;;;;;;5088004;28;20572;-75
2023/06/12 03:50:29;;;;;;;2.95;2.70;;;18.20;91.60;;;;;;5071238;28;20182;-75
2023/06/12 03:52:55;;;;;;;2.90;2.70;;;18.10;91.70;;;;;;5092926;28;20186;-75
2023/06/12 03:55:21;;;;;;;2.33;2.13;;;18.20;91.70;;;;;;5076072;28;20182;-75
2023/06/12 03:57:46;;;;;;;2.50;2.40;;;18.20;91.90;;;;;;5090874;28;20178;-75
2023/06/12 04:00:13;;;;;;;2.03;1.92;;;18.20;91.70;;;;;;5095405;28;20216;-75
2023/06/12 04:02:38;;;;;;;2.30;2.20;;;18.30;91.70;;;;;;5091921;28;20262;-75
2023/06/12 04:05:04;;;;;;;2.30;2.25;;;18.30;91.60;;;;;;5092507;28;20312;-74
2023/06/12 04:07:30;;;;;;;2.63;2.45;;;18.40;91.70;;;;;;5096703;28;20230;-74
2023/06/12 04:09:55;;;;;;;2.55;2.42;;;18.50;91.50;;;;;;5080576;28;20187;-74
2023/06/12 04:12:21;;;;;;;3.10;2.90;;;18.50;91.50;;;;;;5084431;28;20183;-75
2023/06/12 04:14:47;;;;;;;2.17;2.05;;;18.60;91.50;;;;;;5092624;28;20178;-74
2023/06/12 04:17:12;;;;;;;3.05;2.78;;;18.60;91.30;;;;;;5075088;28;20237;-74
2023/06/12 04:19:39;;;;;;;3.03;2.83;;;18.70;91.20;;;;;;5087504;28;20615;-75
2023/06/12 04:22:05;;;;;;;2.90;2.67;;;18.80;91.00;;;;;;5072704;28;20186;-76
2023/06/12 04:24:33;;;;;;;3.33;2.45;;;18.80;90.90;;;;;;5093004;28;20173;-76
2023/06/12 04:27:09;;;;;;;2.85;2.55;;;18.90;90.70;;;;;;5092264;28;20206;-76
2023/06/12 04:29:37;;;;;;;2.67;2.47;;;19.00;90.50;;;;;;5074700;28;20200;-77
2023/06/12 04:32:05;;;;;;;2.72;2.47;;;19.10;90.10;;;;;;5073179;28;20272;-75
2023/06/12 04:34:31;;;;;;;3.03;2.83;;;19.10;89.80;;;;;;5092129;28;20245;-74
2023/06/12 04:36:57;;;;;;;3.38;3.08;;;19.20;88.60;;;;;;5090522;28;20216;-74
2023/06/12 04:39:23;;;;;;;2.75;2.63;;;19.20;88.60;;;;;;5087458;28;20663;-74
2023/06/12 04:41:51;;;;;;;3.03;2.80;;;19.30;89.20;;;;;;5089565;28;20224;-74
2023/06/12 04:44:17;;;;;;;3.05;2.90;;;19.40;88.80;;;;;;5090323;28;20192;-74
2023/06/12 04:46:43;;;;;;;3.00;2.83;;;19.40;89.00;;;;;;5093421;28;20220;-75
2023/06/12 04:49:09;;;;;;;3.03;2.83;;;19.40;88.30;;;;;;5088875;28;20209;-74
2023/06/12 04:51:35;;;;;;;3.13;2.92;;;19.40;88.20;;;;;;5088604;28;20193;-74
2023/06/12 04:54:01;;;;;;;2.63;2.53;;;19.50;88.40;;;;;;5093216;28;20167;-75
2023/06/12 04:56:27;;;;;;;2.88;2.65;;;19.50;88.20;;;;;;5071943;28;20266;-74
2023/06/12 04:58:53;;;;;;;2.67;2.58;;;19.60;88.50;;;;;;5082989;28;20178;-74
2023/06/12 05:01:21;;;;;;;2.72;2.63;;;19.70;88.30;;;;;;5085943;28;20192;-73
2023/06/12 05:03:49;;;;;;;3.35;3.15;;;19.70;88.70;;;;;;5077717;28;20206;-74
2023/06/12 05:06:15;;;;;;;3.70;3.40;;;19.80;87.90;;;;;;5088101;28;20191;-75
2023/06/12 05:08:42;;;;;;;2.88;2.53;;;19.90;87.30;;;;;;5081177;28;20178;-76
2023/06/12 05:11:07;;;;;;;3.42;3.05;;;19.90;86.90;;;;;;5094542;28;20186;-75
2023/06/12 05:13:33;;;;;;;2.88;2.78;;;19.90;87.10;;;;;;5090608;28;20179;-75
2023/06/12 05:15:59;;;;;;;3.08;2.88;;;20.00;87.10;;;;;;5085270;28;20218;-75
2023/06/12 05:18:25;;;;;;;3.55;3.10;;;20.00;86.90;;;;;;5086361;28;20179;-73
2023/06/12 05:20:51;;;;;;;3.72;3.42;;;20.00;87.00;;;;;;5086837;28;20186;-74
2023/06/12 05:23:16;;;;;;;3.70;2.78;;;20.10;87.00;;;;;;5086549;28;20884;-74
2023/06/12 05:25:42;;;;;;;3.47;3.20;;;20.20;87.20;;;;;;5092661;28;20549;-73
2023/06/12 05:28:08;;;;;;;3.10;2.90;;;20.20;86.90;;;;;;5089157;28;20197;-73
2023/06/12 05:30:33;;;;;;;3.30;3.10;;;20.30;85.60;;;;;;5096719;28;20761;-72
2023/06/12 05:32:59;;;;;;;4.65;3.08;;;20.40;85.50;;;;;;5090973;28;20271;-73
2023/06/12 05:35:25;;;;;;;6.07;2.80;;;20.50;85.00;;;;;;5082284;28;20223;-72
2023/06/12 05:37:51;;;;;;;3.58;3.28;;;20.50;84.40;;;;;;5089767;28;20178;-73
2023/06/12 05:40:17;;;;;;;3.50;3.40;;;20.50;84.80;;;;;;5084426;28;20639;-74
2023/06/12 05:42:43;;;;;;;5.32;3.17;;;20.60;85.10;;;;;;5087559;28;20312;-73
2023/06/12 05:45:09;;;;;;;3.33;3.13;;;20.70;85.30;;;;;;5095687;28;20264;-72
2023/06/12 05:47:35;;;;;;;3.85;3.25;;;20.80;85.20;;;;;;5097199;28;20232;-73
2023/06/12 05:50:01;;;;;;;3.38;3.10;;;20.90;85.30;;;;;;5078374;28;20186;-73
2023/06/12 05:52:27;;;;;;;3.20;3.00;;;20.90;84.90;;;;;;5088861;28;20175;-72
2023/06/12 05:54:52;;;;;;;3.13;2.92;;;21.00;83.10;;;;;;5084228;28;20181;-72
2023/06/12 05:57:18;;;;;;;3.33;3.17;;;21.00;82.50;;;;;;5084286;28;20202;-73
2023/06/12 05:59:44;;;;;;;4.35;4.10;;;21.10;82.10;;;;;;5096155;28;20621;-73
2023/06/12 06:02:10;;;;;;;3.80;3.60;;;21.10;82.30;;;;;;5092388;28;20167;-72
2023/06/12 06:04:36;;;;;;;3.85;3.58;;;21.10;82.70;;;;;;5095301;28;20618;-73
2023/06/12 06:07:02;;;;;;;5.65;4.03;;;21.20;83.30;;;;;;5092665;28;20209;-72
2023/06/12 06:09:28;;;;;;;4.80;4.40;;;21.20;83.30;;;;;;5094180;28;20170;-72
2023/06/12 06:11:54;;;;;;;4.43;4.07;;;21.30;83.20;;;;;;5095296;28;20622;-73
2023/06/12 06:14:21;;;;;;;3.60;3.38;;;21.30;82.80;;;;;;5094999;28;20170;-75
2023/06/12 06:16:47;;;;;;;4.28;4.07;;;21.40;82.50;;;;;;5092440;28;20596;-73
2023/06/12 06:19:13;;;;;;;4.28;3.97;;;21.40;82.30;;;;;;5094669;28;20182;-73
2023/06/12 06:21:39;;;;;;;4.03;3.70;;;21.40;82.70;;;;;;5074248;28;20248;-75
2023/06/12 06:24:05;;;;;;;3.88;3.70;;;21.50;82.00;;;;;;5083243;28;20616;-73
2023/06/12 06:26:31;;;;;;;4.35;4.15;;;21.60;81.70;;;;;;5092341;28;20610;-74
2023/06/12 06:28:57;;;;;;;5.05;4.20;;;21.60;81.50;;;;;;5092055;28;20170;-73
2023/06/12 06:31:23;;;;;;;6.75;4.43;;;21.70;81.40;;;;;;5092195;28;20280;-73
2023/06/12 06:33:49;;;;;;;4.30;4.05;;;21.70;81.20;;;;;;5092045;28;20192;-73
2023/06/12 06:36:15;;;;;;;4.72;4.03;;;21.80;81.00;;;;;;5094945;28;20264;-73
2023/06/12 06:38:40;;;;;;;4.60;4.30;;;21.80;80.80;;;;;;5088559;28;20178;-73
2023/06/12 06:41:06;;;;;;;4.38;4.10;;;21.80;81.20;;;;;;5091087;28;20659;-73
2023/06/12 06:43:31;;;;;;;4.47;4.28;;;21.90;81.20;;;;;;5093841;28;20174;-73
2023/06/12 06:45:57;;;;;;;5.47;4.15;;;22.00;80.40;;;;;;5091629;28;20178;-73
2023/06/12 06:48:23;;;;;;;4.57;4.28;;;22.00;80.20;;;;;;5092004;28;20182;-73
2023/06/12 06:50:49;;;;;;;3.92;3.63;;;22.10;80.70;;;;;;5082225;28;20197;-73
2023/06/12 06:53:14;;;;;;;4.40;4.00;;;22.20;80.20;;;;;;5085861;28;20170;-74
2023/06/12 06:55:42;;;;;;;4.65;4.25;;;22.30;79.90;;;;;;5090998;28;20212;-73
2023/06/12 06:58:08;;;;;;;4.13;3.45;;;22.30;79.60;;;;;;5091347;28;20585;-73
2023/06/12 07:00:34;;;;;;;3.60;3.40;;;22.40;79.70;;;;;;5091885;28;20200;-72
2023/06/12 07:03:00;;;;;;;3.30;3.17;;;22.50;79.20;;;;;;5092265;28;20181;-73
2023/06/12 07:05:27;;;;;;;3.85;3.30;;;22.40;77.90;;;;;;5092025;28;20183;-72
2023/06/12 07:07:53;;;;;;;3.13;2.90;;;22.40;77.40;;;;;;5089326;28;20175;-71
2023/06/12 07:10:19;;;;;;;3.33;2.70;;;22.40;78.10;;;;;;5093652;28;20210;-73
2023/06/12 07:12:44;;;;;;;2.97;2.75;;;22.50;78.30;;;;;;5093379;28;20208;-72
2023/06/12 07:15:10;;;;;;;2.88;2.78;;;22.60;78.80;;;;;;5091422;28;20174;-74
2023/06/12 07:17:36;;;;;;;2.85;2.70;;;22.70;79.00;;;;;;5093214;28;20206;-73
2023/06/12 07:20:04;;;;;;;3.53;2.78;;;22.90;77.30;;;;;;5091198;28;20231;-72
2023/06/12 07:22:30;;;;;;;2.80;2.58;;;23.00;77.30;;;;;;5096039;28;20169;-71
2023/06/12 07:24:56;;;;;;;2.50;2.40;;;23.10;77.20;;;;;;5089052;28;20178;-74
2023/06/12 07:27:21;;;;;;;2.58;2.42;;;23.20;77.50;;;;;;5093826;28;20186;-72
2023/06/12 07:29:47;;;;;;;2.60;2.35;;;23.30;77.60;;;;;;5090979;28;20698;-74
2023/06/12 07:32:13;;;;;;;3.28;3.08;;;23.40;77.40;;;;;;5096322;28;20266;-73
2023/06/12 07:34:39;;;;;;;3.83;3.58;;;23.50;77.30;;;;;;5093757;28;20215;-73
2023/06/12 07:37:05;;;;;;;3.50;3.38;;;23.70;76.20;;;;;;5074673;28;20239;-71
2023/06/12 07:39:31;;;;;;;3.08;2.80;;;23.80;76.60;;;;;;5075605;28;20175;-73
2023/06/12 07:41:57;;;;;;;2.40;2.30;;;23.90;75.80;;;;;;5091050;28;20301;-72
2023/06/12 07:44:22;;;;;;;2.30;2.28;;;23.90;74.00;;;;;;5074629;28;20268;-72
2023/06/12 07:46:48;;;;;;;2.17;2.08;;;24.00;74.20;;;;;;5089440;28;20194;-73
2023/06/12 07:49:16;;;;;;;2.88;2.20;;;24.10;73.60;;;;;;5094701;28;20185;-73
2023/06/12 07:51:42;;;;;;;2.75;2.58;;;24.30;74.30;;;;;;5074811;28;20178;-73
2023/06/12 07:54:08;;;;;;;3.35;2.10;;;24.30;74.30;;;;;;5082627;28;20182;-72
2023/06/12 07:56:35;;;;;;;2.97;2.10;;;24.30;73.00;;;;;;5088505;28;20614;-73
2023/06/12 07:59:11;;;;;;;2.20;2.10;;;24.40;72.80;;;;;;5089162;28;20655;-71
2023/06/12 08:01:37;;;;;;;1.92;1.92;;;24.60;72.60;;;;;;5093254;28;20170;-72
2023/06/12 08:04:09;;;;;;;1.95;1.92;;;24.60;72.70;;;;;;5092436;28;20170;-72
2023/06/12 08:06:35;;;;;;;2.20;2.10;;;24.70;72.20;;;;;;5090458;28;20212;-72
2023/06/12 08:09:01;;;;;;;2.58;2.30;;;24.80;70.90;;;;;;5092571;28;20175;-72
2023/06/12 08:11:27;;;;;;;2.33;2.10;;;24.80;70.80;;;;;;5087301;28;20175;-71
2023/06/12 08:13:53;;;;;;;2.42;2.22;;;24.80;69.60;;;;;;5090528;28;20239;-72
2023/06/12 08:16:20;;;;;;;2.65;2.15;;;24.80;69.70;;;;;;5086786;28;20884;-72
2023/06/12 08:18:46;;;;;;;2.30;2.20;;;24.80;70.50;;;;;;5094266;28;20174;-72
2023/06/12 08:21:12;;;;;;;2.10;2.10;;;24.60;69.70;;;;;;5087300;28;20639;-71
2023/06/12 08:23:38;;;;;;;2.30;2.20;;;24.60;70.20;;;;;;5093197;28;20197;-71
2023/06/12 08:26:04;;;;;;;2.03;1.98;;;24.40;71.80;;;;;;5076540;28;20178;-70
2023/06/12 08:28:30;;;;;;;2.10;2.00;;;24.20;71.00;;;;;;5097214;28;20727;-71
2023/06/12 08:30:57;;;;;;;2.70;2.35;;;24.20;72.20;;;;;;5092699;28;20194;-71
2023/06/12 08:33:24;;;;;;;2.25;2.20;;;24.00;70.30;;;;;;5074431;28;20286;-71
2023/06/12 08:35:49;;;;;;;2.15;2.05;;;23.80;71.00;;;;;;5092689;28;20238;-71
2023/06/12 08:38:15;;;;;;;2.13;2.03;;;23.80;71.70;;;;;;5092975;28;20209;-71
2023/06/12 08:40:41;;;;;;;2.88;2.20;;;23.80;71.10;;;;;;5089949;28;20220;-72
2023/06/12 08:43:06;;;;;;;2.58;2.42;;;23.80;72.00;;;;;;5092941;28;20181;-72
2023/06/12 08:45:34;;;;;;;4.95;4.10;;;23.80;71.80;;;;;;5092324;28;20174;-71
2023/06/12 08:48:03;;;;;;;4.25;3.05;;;23.80;74.10;;;;;;5089327;28;20185;-71
2023/06/12 08:50:29;;;;;;;3.03;2.83;;;23.80;75.30;;;;;;5085583;28;20780;-72
2023/06/12 08:52:56;;;;;;;3.22;3.03;;;23.60;76.20;;;;;;5089771;28;20293;-72
2023/06/12 08:55:24;;;;;;;2.97;2.88;;;23.40;77.70;;;;;;5089836;28;20667;-72
2023/06/12 08:57:49;;;;;;;2.90;2.80;;;23.10;78.90;;;;;;5090704;28;20178;-71
2023/06/12 09:00:15;;;;;;;2.60;2.50;;;22.80;79.50;;;;;;5094107;28;20171;-72
2023/06/12 09:03:00;;;;;;;3.85;2.92;;;22.70;79.80;;;;;;5073185;28;20622;-71
2023/06/12 09:05:35;;;;;;;3.60;2.80;;;22.60;79.90;;;;;;5088195;28;20182;-72
2023/06/12 09:08:03;;;;;;;3.55;2.85;;;22.50;80.60;;;;;;5089610;28;20178;-71
2023/06/12 09:10:29;;;;;;;3.03;2.83;;;22.30;81.20;;;;;;5078451;28;20179;-72
2023/06/12 09:12:56;;;;;;;3.22;3.13;;;22.20;81.90;;;;;;5089261;28;20183;-72
2023/06/12 09:15:23;;;;;;;3.28;2.78;;;22.20;81.80;;;;;;5089414;28;20203;-72
2023/06/12 09:17:56;;;;;;;3.05;2.85;;;22.10;83.20;;;;;;5084987;28;20179;-73
2023/06/12 09:20:27;;;;;;;2.75;2.65;;;22.00;82.80;;;;;;5086820;28;20187;-72
2023/06/12 09:22:53;;;;;;;2.90;2.75;;;21.90;82.30;;;;;;5089749;28;20174;-73
2023/06/12 09:25:19;;;;;;;3.55;2.80;;;21.90;82.90;;;;;;5092942;28;20183;-73
2023/06/12 09:27:46;;;;;;;3.88;2.85;;;21.90;83.80;;;;;;5096905;28;20205;-73
2023/06/12 09:30:12;;;;;;;3.47;3.17;;;21.80;82.70;;;;;;5089943;28;20206;-73
2023/06/12 09:32:41;;;;;;;2.58;2.45;;;21.70;82.80;;;;;;5097898;28;20174;-73
2023/06/12 09:35:07;;;;;;;3.35;2.53;;;21.70;83.40;;;;;;5093283;28;20178;-72
2023/06/12 09:37:32;;;;;;;2.75;2.60;;;21.60;82.70;;;;;;5089919;28;20241;-72
2023/06/12 09:40:13;;;;;;;6.72;3.35;;;21.60;83.30;;;;;;5092076;28;20261;-72
2023/06/12 09:42:39;;;;;;;2.78;2.50;;;21.60;84.60;;;;;;5098733;28;20779;-72
2023/06/12 09:45:23;;;;;;;2.70;2.60;;;21.70;84.10;;;;;;5100589;28;20236;-73
2023/06/12 09:47:51;;;;;;;5.97;2.53;;;21.70;84.80;;;;;;5100201;28;20206;-72
2023/06/12 09:50:18;;;;;;;3.20;2.97;;;21.50;86.10;;;;;;5097560;28;20508;-72
2023/06/12 09:52:47;;;;;;;2.78;2.63;;;21.50;86.00;;;;;;5094926;28;20181;-72
2023/06/12 09:55:15;;;;;;;5.80;3.38;;;21.50;86.20;;;;;;5097543;28;20243;-72
2023/06/12 09:57:43;;;;;;;3.30;3.00;;;21.50;87.70;;;;;;5093036;28;20221;-72
2023/06/12 10:00:11;;;;;;;2.63;2.60;;;21.50;87.20;;;;;;5090515;28;20323;-73
2023/06/12 10:02:42;;;;;;;3.53;3.15;;;21.50;86.90;;;;;;5096562;28;20194;-73
2023/06/12 10:05:35;;;;;;;2.60;2.40;;;21.50;86.70;;;;;;5091330;28;20184;-73
2023/06/12 10:08:03;;;;;;;2.20;1.85;;;21.60;84.10;;;;;;5089834;28;20321;-73
2023/06/12 10:10:36;;;;;;;2.10;2.00;;;21.60;82.80;;;;;;5086638;28;20683;-73
2023/06/12 10:13:02;;;;;;;2.22;2.13;;;21.60;82.10;;;;;;5093229;28;20249;-72
2023/06/12 10:15:30;;;;;;;2.15;1.95;;;21.60;82.40;;;;;;5092590;28;20173;-73
2023/06/12 10:17:57;;;;;;;2.35;2.35;;;21.60;82.60;;;;;;5097255;28;20194;-72
2023/06/12 10:20:24;;;;;;;2.88;2.28;;;21.60;82.20;;;;;;5072576;28;20185;-72
2023/06/12 10:22:52;;;;;;;2.10;2.00;;;21.70;82.40;;;;;;5097564;28;20166;-72
2023/06/12 10:25:19;;;;;;;2.20;2.10;;;21.70;82.20;;;;;;5088917;28;20189;-72
2023/06/12 10:27:45;;;;;;;2.38;2.28;;;21.70;81.30;;;;;;5086173;28;20194;-74
2023/06/12 10:30:13;;;;;;;2.33;2.13;;;21.70;80.90;;;;;;5090518;28;20229;-73
2023/06/12 10:32:42;;;;;;;2.45;2.25;;;21.70;80.80;;;;;;5089692;28;20238;-73
2023/06/12 10:35:08;;;;;;;2.13;2.03;;;21.60;81.90;;;;;;5098015;28;20564;-72
2023/06/12 10:37:42;;;;;;;2.47;2.28;;;21.60;83.00;;;;;;5089215;28;20225;-72
2023/06/12 10:40:15;;;;;;;2.20;2.10;;;21.70;82.90;;;;;;5088204;28;20184;-72
2023/06/12 10:42:48;;;;;;;2.00;1.40;;;21.80;82.30;;;;;;5087508;28;20173;-72
2023/06/12 10:45:17;;;;;;;1.70;1.60;;;21.80;81.60;;;;;;5087260;28;20595;-72
2023/06/12 10:48:08;;;;;;;1.75;1.75;;;21.80;81.30;;;;;;5093102;28;20175;-72
2023/06/12 10:50:53;;;;;;;3.13;1.45;;;21.80;82.60;;;;;;5091772;28;20173;-72
2023/06/12 10:53:22;;;;;;;1.67;1.58;;;21.60;82.10;;;;;;5085590;28;20182;-74
2023/06/12 10:55:47;;;;;;;3.58;1.65;;;21.60;80.70;;;;;;5071926;28;20217;-73
2023/06/12 10:58:18;;;;;;;3.17;2.45;;;21.60;81.60;;;;;;5089833;28;20201;-73
2023/06/12 11:00:52;;;;;;;1.60;1.50;;;21.60;81.40;;;;;;5093718;28;20174;-73
2023/06/12 11:03:28;;;;;;;2.08;1.85;;;21.70;78.40;;;;;;5086681;28;20210;-74
2023/06/12 11:06:08;;;;;;;1.48;1.45;;;21.70;79.30;;;;;;5084191;28;20181;-73
2023/06/12 11:08:34;;;;;;;7.45;1.98;;;21.80;79.30;;;;;;5090926;28;20200;-72
2023/06/12 11:11:06;;;;;;;2.40;2.30;;;21.90;78.80;;;;;;5087766;28;20224;-72
2023/06/12 11:13:32;;;;;;;1.85;1.75;;;22.10;79.20;;;;;;5086188;28;20201;-72
2023/06/12 11:15:57;;;;;;;2.88;2.03;;;22.30;79.80;;;;;;5084855;28;20710;-73
2023/06/12 11:18:23;;;;;;;2.83;2.72;;;22.50;78.70;;;;;;5071662;28;20187;-72
2023/06/12 11:20:58;;;;;;;3.42;3.13;;;22.80;77.70;;;;;;5086467;28;20198;-72
2023/06/12 11:23:28;;;;;;;2.25;2.15;;;22.90;76.90;;;;;;5063777;28;20255;-72
2023/06/12 11:25:57;;;;;;;3.05;2.83;;;23.10;75.90;;;;;;5091966;28;20316;-73
2023/06/12 11:28:24;;;;;;;3.88;2.95;;;23.20;75.00;;;;;;5097894;28;20563;-73
2023/06/12 11:30:57;;;;;;;2.40;2.20;;;23.30;73.40;;;;;;5070731;28;20205;-73
2023/06/12 11:33:22;;;;;;;3.78;2.10;;;23.40;75.40;;;;;;5076547;28;20193;-73
2023/06/12 11:35:52;;;;;;;1.90;1.63;;;23.40;73.90;;;;;;5073233;28;20222;-73
2023/06/12 11:38:20;;;;;;;1.83;1.73;;;23.30;75.50;;;;;;5088720;28;20194;-72
2023/06/12 11:40:47;;;;;;;2.53;2.05;;;23.40;76.60;;;;;;5078040;28;20179;-72
2023/06/12 11:43:16;;;;;;;2.13;2.03;;;23.50;77.30;;;;;;5092113;28;20177;-72
2023/06/12 11:45:43;;;;;;;1.70;1.70;;;23.70;74.00;;;;;;5093711;28;20197;-72
2023/06/12 11:48:14;;;;;;;1.90;1.80;;;24.10;73.40;;;;;;5092580;28;20197;-72
2023/06/12 11:50:41;;;;;;;1.77;1.58;;;24.50;71.80;;;;;;5089593;28;20235;-72
2023/06/12 11:53:07;;;;;;;1.90;1.80;;;25.10;67.80;;;;;;5072980;28;20594;-72
2023/06/12 11:55:33;;;;;;;1.30;1.30;;;25.60;67.60;;;;;;5091583;28;20174;-72
2023/06/12 11:58:01;;;;;;;3.22;1.40;;;26.00;64.60;;;;;;5090724;28;20182;-73
2023/06/12 12:00:30;;;;;;;1.40;1.40;;;26.50;63.50;;;;;;5085746;28;20190;-73
2023/06/12 12:03:01;;;;;;;1.00;1.00;;;26.80;63.40;;;;;;5092219;28;20178;-73
2023/06/12 12:05:31;;;;;;;1.95;1.85;;;27.10;62.90;;;;;;5084525;28;20680;-73
2023/06/12 12:07:59;;;;;;;2.67;1.30;;;27.60;62.10;;;;;;5088788;28;20355;-73
2023/06/12 12:10:27;;;;;;;1.70;1.38;;;28.20;60.80;;;;;;5070194;28;20198;-73
2023/06/12 12:13:00;;;;;;;1.50;1.50;;;28.60;62.70;;;;;;5073323;28;20182;-73
2023/06/12 12:15:28;;;;;;;5.03;1.77;;;28.90;60.60;;;;;;5090490;28;20194;-73
2023/06/12 12:17:55;;;;;;;1.67;1.67;;;28.90;58.90;;;;;;5090852;28;20186;-73
2023/06/12 12:20:25;;;;;;;2.70;2.47;;;28.80;60.80;;;;;;5071971;28;20235;-73
2023/06/12 12:22:59;;;;;;;2.13;2.03;;;29.00;64.00;;;;;;5087970;28;20266;-73
2023/06/12 12:25:27;;;;;;;2.20;2.10;;;29.20;64.90;;;;;;5093305;28;20209;-73
2023/06/12 12:27:54;;;;;;;2.60;2.05;;;29.20;65.10;;;;;;5091449;28;20235;-73
2023/06/12 12:30:21;;;;;;;1.90;1.80;;;29.00;64.70;;;;;;5094926;28;20185;-73
2023/06/12 12:32:54;;;;;;;2.08;1.98;;;28.60;65.50;;;;;;5089272;28;20181;-73
2023/06/12 12:35:21;;;;;;;1.98;1.92;;;28.20;66.30;;;;;;5091735;28;20224;-72
2023/06/12 12:37:48;;;;;;;1.83;1.73;;;27.80;67.60;;;;;;5074638;28;20724;-73
2023/06/12 12:40:14;;;;;;;1.90;1.90;;;27.50;68.40;;;;;;5087237;28;20994;-74
2023/06/12 12:42:43;;;;;;;1.90;1.90;;;27.10;68.70;;;;;;5087827;28;20189;-74
2023/06/12 12:45:11;;;;;;;1.92;1.83;;;26.80;69.40;;;;;;5091852;28;20222;-73
2023/06/12 12:47:40;;;;;;;1.48;1.38;;;26.50;68.80;;;;;;5088525;28;20697;-72
2023/06/12 12:50:07;;;;;;;1.40;1.40;;;26.30;68.60;;;;;;5090053;28;20167;-72